CYLL

Lloydminster Airport

Lloydminster, Alberta, Canada
METAR CYLL 181425Z 28008KT 1 1/4SM FU SCT033 OVC095 14/09 A3002 RMK FU1SC3AC4 SLP173 DENSITY ALT 2600FT
Observed Flight Rules
Aug-18 @ 14:25 UTC (27 minutes ago) Instrument Flight Rules
Wind Visibility Clouds Conditions
280° at 8 knots 1 1/4 miles
  • Scattered at 3,300' AGL
  • Overcast at 9,500' AGL
  • Smoke
Temperatures Readings
Current 14°C / 57°F
Dewpoint 9°C / 48°F
Humidity 72%
Altimeter 30.02" Hg
Pressure 1017.3 hPa
Elevation 669
METAR CYLL 181425Z 28008KT 1 1/4SM FU SCT033 OVC095 14/09 A3002 RMK FU1SC3AC4 SLP173 DENSITY ALT 2600FT
Observed Flight Rules
Aug-18 @ 14:25 UTC
(27 minutes ago)
IFR
Wind Visibility
280° at 8 knots 1 1/4 miles
Clouds
  • Scattered at 3,300' AGL
  • Overcast at 9,500' AGL
Conditions
  • Smoke
Temperature Dewpoint
14°C / 57°F 9°C / 48°F
Humidity Altimeter Pressure
72% 30.02" Hg 1017.3 hPa